createdAt,value
2022-10-20T00:04:56.609Z,98838.38
2022-10-20T00:09:58.675Z,98748.00
2022-10-20T00:15:00.806Z,98801.81
2022-10-20T00:20:03.036Z,98701.03
2022-10-20T00:25:05.723Z,98792.16
2022-10-20T00:30:08.369Z,98759.06
2022-10-20T00:35:10.550Z,98852.97
2022-10-20T00:40:13.201Z,98818.16
2022-10-20T00:45:18.707Z,98823.28
2022-10-20T00:50:27.052Z,98850.28
2022-10-20T00:55:31.574Z,98879.78
2022-10-20T01:00:54.107Z,98738.09
2022-10-20T01:05:56.276Z,98844.03
2022-10-20T01:11:22.129Z,98863.16
2022-10-20T01:16:50.281Z,98893.66
2022-10-20T01:22:18.533Z,98904.03
2022-10-20T01:27:40.484Z,98901.41
2022-10-20T01:33:10.170Z,98914.41
2022-10-20T01:38:21.487Z,98883.94
2022-10-20T01:43:26.047Z,98881.25
2022-10-20T01:48:32.568Z,98898.56
2022-10-20T01:53:34.779Z,98877.69
2022-10-20T01:59:10.946Z,98936.84
2022-10-20T02:04:14.315Z,98912.38
2022-10-20T02:09:20.851Z,98938.34
2022-10-20T02:14:23.705Z,98935.75
2022-10-20T02:19:31.936Z,98961.75
2022-10-20T02:24:38.934Z,98920.84
2022-10-20T02:30:02.406Z,98962.69
2022-10-20T02:35:11.891Z,98981.75
2022-10-20T02:40:14.345Z,98959.81
2022-10-20T02:45:16.514Z,98886.44
2022-10-20T02:50:18.817Z,98993.63
2022-10-20T02:55:20.913Z,98923.94
2022-10-20T03:00:23.131Z,98875.97
2022-10-20T03:05:25.364Z,99003.00
2022-10-20T03:10:27.540Z,98905.38
2022-10-20T03:15:29.782Z,99018.50
2022-10-20T03:20:32.284Z,99018.53
2022-10-20T03:25:34.385Z,98970.56
2022-10-20T03:30:36.498Z,99011.47
2022-10-20T03:35:38.607Z,99064.53
2022-10-20T03:40:40.789Z,99014.06
2022-10-20T03:46:04.075Z,99035.72
2022-10-20T03:51:25.252Z,98874.66
2022-10-20T03:56:27.368Z,98926.81
2022-10-20T04:01:48.623Z,98985.09
2022-10-20T04:07:09.372Z,99045.13
2022-10-20T04:12:11.593Z,99021.50
2022-10-20T04:17:13.680Z,99082.47
2022-10-20T04:22:34.525Z,99100.66
2022-10-20T04:27:37.924Z,99087.59
2022-10-20T04:32:40.363Z,99076.19
2022-10-20T04:37:42.495Z,98973.28
2022-10-20T04:42:44.661Z,99086.44
2022-10-20T04:47:46.764Z,99141.28
2022-10-20T04:52:48.935Z,99070.63
2022-10-20T04:57:51.045Z,99155.94
2022-10-20T05:03:14.395Z,99137.63
2022-10-20T05:08:16.539Z,99133.22
2022-10-20T05:13:18.747Z,99157.56
2022-10-20T05:18:20.933Z,99070.31
2022-10-20T05:23:23.090Z,99080.72
2022-10-20T05:28:25.309Z,99037.13
2022-10-20T05:33:48.323Z,99171.25
2022-10-20T05:38:52.355Z,99200.03
2022-10-20T05:43:59.955Z,99195.69
2022-10-20T05:49:03.296Z,99165.13
2022-10-20T05:54:05.512Z,99107.47
2022-10-20T05:59:08.195Z,99207.88
2022-10-20T06:04:10.289Z,99153.88
2022-10-20T06:09:12.560Z,99167.69
2022-10-20T06:14:15.395Z,99160.75
2022-10-20T06:19:17.618Z,99229.69
2022-10-20T06:24:20.118Z,99218.38
2022-10-20T06:29:22.278Z,99234.84
2022-10-20T06:34:25.744Z,99141.47
2022-10-20T06:39:27.956Z,99218.25
2022-10-20T06:44:30.056Z,99201.72
2022-10-20T06:49:32.241Z,99136.28
2022-10-20T06:54:34.317Z,99186.06
2022-10-20T06:59:38.874Z,99210.28
2022-10-20T07:04:41.146Z,99141.38
2022-10-20T07:09:49.177Z,99230.44
2022-10-20T07:14:51.347Z,99165.09
2022-10-20T07:19:53.534Z,99215.66
2022-10-20T07:24:55.733Z,99218.38
2022-10-20T07:29:57.902Z,99212.16
2022-10-20T07:35:00.016Z,99271.59
2022-10-20T07:40:02.161Z,99230.50
2022-10-20T07:45:06.422Z,99231.50
2022-10-20T07:50:10.011Z,99167.91
2022-10-20T07:55:36.624Z,99242.97
2022-10-20T08:00:34.320Z,99260.44
2022-10-20T08:05:36.524Z,99252.56
2022-10-20T08:10:38.850Z,99222.00
2022-10-20T08:16:09.076Z,99266.38
2022-10-20T08:21:17.853Z,99244.78
2022-10-20T08:26:24.880Z,99280.41
2022-10-20T08:31:27.036Z,99176.69
2022-10-20T08:36:47.672Z,99260.44
2022-10-20T08:42:12.331Z,99255.97
2022-10-20T08:47:36.989Z,99259.44
2022-10-20T08:52:41.417Z,99312.59
2022-10-20T08:57:43.727Z,99228.06
2022-10-20T09:02:47.412Z,99184.97
2022-10-20T09:07:50.295Z,99266.22
2022-10-20T09:12:52.761Z,99326.44
2022-10-20T09:17:57.508Z,99331.63
2022-10-20T09:23:04.069Z,99290.53
2022-10-20T09:28:26.713Z,99281.84
2022-10-20T09:33:30.513Z,99202.47
2022-10-20T09:38:46.289Z,99056.75
2022-10-20T09:44:00.417Z,99267.22
2022-10-20T09:49:27.692Z,99277.81
2022-10-20T09:54:30.004Z,99281.31
2022-10-20T09:59:45.872Z,99325.88
2022-10-20T10:04:50.194Z,99302.16
2022-10-20T10:10:20.236Z,99318.97
2022-10-20T10:15:28.556Z,99282.28
2022-10-20T10:20:37.385Z,99328.53
2022-10-20T10:25:39.498Z,99310.94
2022-10-20T10:30:46.812Z,99278.41
2022-10-20T10:35:51.728Z,99309.09
2022-10-20T10:41:36.627Z,99258.56
2022-10-20T10:46:58.632Z,99320.56
2022-10-20T10:52:55.213Z,99351.06
2022-10-20T10:58:10.994Z,99269.81
2022-10-20T11:03:46.957Z,99348.50
2022-10-20T11:09:15.780Z,99292.44
2022-10-20T11:14:33.206Z,99348.41
2022-10-20T11:19:54.570Z,99346.75
2022-10-20T11:25:37.941Z,99343.31
2022-10-20T11:30:40.191Z,99323.91
2022-10-20T11:35:52.370Z,99351.16
2022-10-20T11:41:50.158Z,99295.28
2022-10-20T11:46:56.303Z,99346.84
2022-10-20T11:52:28.244Z,99323.16
2022-10-20T11:58:01.160Z,99318.94
2022-10-20T12:03:37.061Z,99361.69
2022-10-20T12:09:11.546Z,99360.00
2022-10-20T12:14:17.184Z,99359.09
2022-10-20T12:19:35.068Z,99354.75
2022-10-20T12:24:55.492Z,99360.84
2022-10-20T12:30:18.982Z,99372.97
2022-10-20T12:35:24.067Z,99372.09
2022-10-20T12:40:52.304Z,99391.13
2022-10-20T12:51:31.779Z,99363.09
2022-10-20T12:56:37.560Z,99376.06
2022-10-20T13:02:10.746Z,99395.34
2022-10-20T13:07:12.847Z,99371.66
2022-10-20T13:12:30.543Z,99348.94
2022-10-20T13:17:48.338Z,99388.09
2022-10-20T13:22:52.099Z,99363.47
2022-10-20T13:28:05.727Z,99411.50
2022-10-20T13:33:44.465Z,99369.38
2022-10-20T13:39:24.054Z,99427.78
2022-10-20T13:44:31.879Z,99436.25
2022-10-20T13:50:14.050Z,99382.06
2022-10-20T13:55:30.940Z,99422.81
2022-10-20T14:00:34.608Z,99389.38
2022-10-20T14:05:43.171Z,99451.38
2022-10-20T14:10:52.715Z,99348.75
2022-10-20T14:15:57.218Z,99452.72
2022-10-20T14:21:01.364Z,99460.34
2022-10-20T14:26:05.344Z,99439.06
2022-10-20T14:31:08.604Z,99439.66
2022-10-20T14:36:23.330Z,99478.16
2022-10-20T14:41:29.032Z,99435.03
2022-10-20T14:46:35.495Z,99470.75
2022-10-20T14:51:41.241Z,99414.22
2022-10-20T14:56:45.681Z,99452.78
2022-10-20T15:02:17.359Z,99452.66
2022-10-20T15:07:33.791Z,99501.47
2022-10-20T15:12:56.106Z,99452.13
2022-10-20T15:18:20.299Z,99453.75
2022-10-20T15:23:28.303Z,99514.84
2022-10-20T15:28:43.660Z,99379.84
2022-10-20T15:33:46.814Z,99493.53
2022-10-20T15:38:50.203Z,99499.44
2022-10-20T15:43:52.797Z,99311.25
2022-10-20T15:49:14.538Z,99354.22
2022-10-20T15:54:20.227Z,99504.53
2022-10-20T15:59:41.210Z,99465.13
2022-10-20T16:05:02.200Z,99521.91
2022-10-20T16:10:25.361Z,99534.03
2022-10-20T16:15:30.390Z,99466.56
2022-10-20T16:20:33.474Z,99389.41
2022-10-20T16:25:35.797Z,99495.28
2022-10-20T16:31:11.145Z,99542.63
2022-10-20T16:36:31.745Z,99474.03
2022-10-20T16:41:34.080Z,99533.72
2022-10-20T16:46:38.827Z,99413.63
2022-10-20T16:51:41.055Z,99436.34
2022-10-20T16:57:02.393Z,99508.81
2022-10-20T17:02:05.165Z,99457.13
2022-10-20T17:07:08.913Z,99529.50
2022-10-20T17:12:30.076Z,99520.72
2022-10-20T17:17:50.696Z,99482.25
2022-10-20T17:22:56.028Z,99505.59
2022-10-20T17:28:20.065Z,99530.97
2022-10-20T17:33:23.570Z,99519.31
2022-10-20T17:38:27.728Z,99584.03
2022-10-20T17:43:30.129Z,99500.50
2022-10-20T17:48:32.823Z,99424.91
2022-10-20T17:53:36.684Z,99537.16
2022-10-20T17:58:39.058Z,99585.25
2022-10-20T18:03:42.116Z,99538.34
2022-10-20T18:08:44.708Z,99484.59
2022-10-20T18:13:47.647Z,99481.84
2022-10-20T18:18:50.619Z,99561.59
2022-10-20T18:24:02.395Z,99608.69
2022-10-20T18:29:06.552Z,99585.88
2022-10-20T18:34:13.906Z,99585.53
2022-10-20T18:39:17.040Z,99630.88
2022-10-20T18:44:38.958Z,99559.53
2022-10-20T18:49:59.659Z,99636.53
2022-10-20T18:55:02.650Z,99596.94
2022-10-20T19:00:09.724Z,99574.47
2022-10-20T19:05:14.089Z,99602.72
2022-10-20T19:10:16.358Z,99627.22
2022-10-20T19:15:40.693Z,99596.63
2022-10-20T19:20:42.945Z,99635.13
2022-10-20T19:25:45.285Z,99603.16
2022-10-20T19:30:47.546Z,99612.06
2022-10-20T19:35:50.579Z,99602.31
2022-10-20T19:40:54.838Z,99653.13
2022-10-20T19:45:58.874Z,99636.34
2022-10-20T19:51:01.211Z,99603.00
2022-10-20T19:56:07.582Z,99666.19
2022-10-20T20:01:28.590Z,99569.53
2022-10-20T20:06:30.794Z,99583.56
2022-10-20T20:11:34.635Z,99646.91
2022-10-20T20:16:46.378Z,99623.09
2022-10-20T20:21:50.137Z,99618.78
2022-10-20T20:26:52.392Z,99588.13
2022-10-20T20:32:13.433Z,99547.00
2022-10-20T20:37:15.668Z,99632.66
2022-10-20T20:42:17.924Z,99637.84
2022-10-20T20:47:20.142Z,99576.66
2022-10-20T20:52:22.415Z,99639.75
2022-10-20T20:57:24.733Z,99642.88
2022-10-20T21:02:46.036Z,99658.88
2022-10-20T21:08:06.914Z,99487.16
2022-10-20T21:13:09.124Z,99613.28
2022-10-20T21:18:11.482Z,99557.94
2022-10-20T21:23:13.707Z,99582.31
2022-10-20T21:28:15.904Z,99585.34
2022-10-20T21:33:18.136Z,99633.31
2022-10-20T21:38:40.472Z,99663.38
2022-10-20T21:43:45.229Z,99606.97
2022-10-20T21:48:49.062Z,99555.00
2022-10-20T21:53:58.246Z,99612.63
2022-10-20T21:59:00.399Z,99631.13
2022-10-20T22:04:02.670Z,99639.06
2022-10-20T22:09:05.644Z,99393.88
2022-10-20T22:14:08.176Z,99674.72
2022-10-20T22:19:16.129Z,99623.25
2022-10-20T22:24:21.572Z,99631.13
2022-10-20T22:29:24.220Z,99624.50
2022-10-20T22:34:26.403Z,99598.16
2022-10-20T22:39:28.598Z,99614.94
2022-10-20T22:44:30.839Z,99492.97
2022-10-20T22:49:33.037Z,99598.84
2022-10-20T22:54:35.153Z,99543.91
2022-10-20T22:59:37.437Z,99643.00
2022-10-20T23:04:39.638Z,99631.03
2022-10-20T23:10:00.905Z,99595.00
2022-10-20T23:15:03.320Z,99651.88
2022-10-20T23:20:06.793Z,99658.66
2022-10-20T23:25:09.199Z,99643.63
2022-10-20T23:30:29.895Z,99690.13
2022-10-20T23:35:35.403Z,99631.91
2022-10-20T23:40:37.912Z,99617.19
2022-10-20T23:45:40.118Z,99661.13
2022-10-20T23:50:43.583Z,99682.94
2022-10-20T23:56:04.714Z,99637.22
